Dassault Systemes SA ROA 2010-2023 | DASTY

Current and historical return on assets (ROA) values for Dassault Systemes SA (DASTY) over the last 10 years. Return on assets can be defined as an indicator of how profitable a company is relative to its total assets. Calculated by dividing a company's operating earnings by its total assets.
Dassault Systemes SA ROA - Return on Assets Historical Data
Date TTM Net Income Total Assets Return on Assets
2023-09-30 $0.76B $15.73B 4.91%
2023-03-31 $1.06B $15.40B 6.73%
2022-09-30 $1.00B $14.81B 6.30%
2022-03-31 $1.00B $15.98B 6.17%
2021-12-31 $0.92B $16.82B 5.60%
2021-09-30 $0.88B $15.77B 5.55%
2021-06-30 $0.78B $16.36B 4.90%
2021-03-31 $0.65B $16.46B 4.16%
2020-12-31 $0.56B $14.81B 3.66%
2020-09-30 $0.53B $15.63B 3.39%
2020-06-30 $0.57B $15.20B 3.86%
2020-03-31 $0.63B $15.51B 4.69%
2019-12-31 $0.69B $15.54B 5.73%
2019-09-30 $0.72B $12.96B 6.87%
2019-06-30 $0.72B $9.81B 7.62%
2019-03-31 $0.73B $9.89B 7.92%
2018-12-31 $0.67B $9.42B 7.50%
2018-09-30 $0.67B $8.68B 7.82%
2018-06-30 $0.65B $8.94B 7.70%
2018-03-31 $0.62B $8.80B 7.68%
2017-12-31 $0.59B $7.95B 7.56%
2017-09-30 $0.51B $7.94B 6.57%
2017-06-30 $0.51B $7.60B 6.71%
2017-03-31 $0.49B $7.60B 6.49%
2016-12-31 $0.49B $7.68B 6.73%
2016-09-30 $0.47B $7.36B 6.58%
2016-06-30 $0.46B $7.33B 6.80%
2016-03-31 $0.46B $6.98B 7.13%
2015-12-31 $0.45B $7.01B 7.14%
2015-09-30 $0.43B $5.92B 6.95%
2015-06-30 $0.40B $5.91B 6.43%
2015-03-31 $0.38B $6.19B 6.03%
2014-12-31 $0.37B $6.60B 5.90%
2014-09-30 $0.40B $6.31B 6.68%
2014-06-30 $0.43B $6.16B 7.48%
2014-03-31 $0.45B $5.96B 8.02%
2013-12-31 $0.47B $5.56B 8.77%
2013-09-30 $0.46B $5.48B 8.85%
2013-06-30 $0.44B $5.45B 8.89%
2013-03-31 $0.44B $5.04B 9.11%
2012-12-31 $0.43B $4.64B 9.24%
2012-09-30 $0.42B $4.68B 8.73%
2012-06-30 $0.42B $4.74B 8.74%
2012-03-31 $0.41B $4.74B 8.69%
2011-12-31 $0.40B $4.90B 8.75%
2011-09-30 $0.39B $4.61B 9.05%
2011-06-30 $0.36B $4.44B 8.68%
2011-03-31 $0.33B $4.25B 8.26%
2010-12-31 $0.29B $4.08B 7.65%
2010-09-30 $0.30B $3.72B 8.31%
2010-06-30 $0.28B $3.84B 8.31%
2010-03-31 $0.26B $3.56B 8.08%
2009-12-31 $0.25B $3.21B 8.13%
Sector Industry Market Cap Revenue
Computer and Technology Computer Software $54.970B $6.441B
Dassault Systemes is a worldwide recognized leader in CAD/CAM/CAE and PDM II markets. The company's mission to provide solutions to enable customersto build their digital enterprise, by defining, simulating, managing and optimizing concurrently product, manufacturing process, and resources. In this virtual space, customers create innovative, high quality, safe and affordable products. The company delivers scaleable process and design-centric solutions on both Unix and Windows NT environments.
Stock Name Country Market Cap PE Ratio
Microsoft (MSFT) United States $2979.308B 36.25
Oracle (ORCL) United States $314.786B 25.62
Salesforce (CRM) United States $265.596B 44.31
Adobe (ADBE) United States $209.167B 34.97
Intuit (INTU) United States $170.736B 57.26
Synopsys (SNPS) United States $78.612B 56.71
Cadence Design Systems (CDNS) United States $77.594B 73.84
Autodesk (ADSK) United States $46.444B 45.71
ANSYS (ANSS) United States $28.356B 47.84
MicroStrategy (MSTR) United States $22.466B 44.76
PTC (PTC) United States $21.346B 62.87
SS&C Technologies Holdings (SSNC) United States $15.138B 14.90
Manhattan Associates (MANH) United States $14.058B 80.96
Open Text (OTEX) Canada $9.662B 10.36
Descartes Systems Group (DSGX) Canada $7.806B 68.39
Trend Micro (TMICY) Japan $7.315B 64.90
Pegasystems (PEGA) United States $4.880B 66.85
Blackbaud (BLKB) United States $4.205B 37.62
CommVault Systems (CVLT) United States $4.183B 74.64
ACI Worldwide (ACIW) United States $3.432B 17.62
Progress Software (PRGS) United States $2.246B 14.06
Verint Systems (VRNT) United States $1.819B 16.95
Sapiens (SPNS) Israel $1.680B 23.80
BlackBerry (BB) Canada $1.650B 0.00
PROS Holdings (PRO) United States $1.580B 0.00
Simulations Plus (SLP) United States $0.899B 66.18
Rand Worldwide (RWWI) United States $0.574B 0.00
Magic Software Enterprises (MGIC) Israel $0.569B 11.71
American Software (AMSWA) United States $0.348B 29.11
Canaan (CAN) China $0.217B 0.00
Rigetti Computing (RGTI) United States $0.180B 0.00
OptimizeRx (OPRX) United States $0.165B 0.00
Icad Inc (ICAD) United States $0.040B 0.00
Hanryu Holdings (HRYU) South Korea $0.031B 0.00
NetSol Technologies (NTWK) United States $0.030B 0.00
Neonode (NEON) Sweden $0.029B 0.00
Wetouch Technology (WETH) $0.029B 0.00
Smith Micro Software (SMSI) United States $0.021B 0.00
GSE Systems (GVP) United States $0.009B 0.00
SAP SE (SAP) Germany $0.000B 45.57